Time;durP1;ratioP1;P1;durP2;ratioP2;P2;SDS_P1;SDS_P2;PMS_P1;PMS_P2;Temp;Humidity;BMP_temperature;BMP_pressure;BME280_temperature;BME280_humidity;BME280_pressure;Samples;Min_cycle;Max_cycle;Signal;HPM_P1;HPM_P2
2022/02/03 00:25:09;;;;;;;15.65;11.30;;;;;;;0.03;100.00;94074.72;10480729;28;20017;-76
2022/02/03 00:30:16;;;;;;;15.40;11.02;;;;;;;0.09;100.00;94074.63;10479732;28;20029;-77
2022/02/03 00:35:37;;;;;;;11.85;9.68;;;;;;;-0.02;100.00;94086.75;10480901;28;20062;-75
2022/02/03 00:51:21;;;;;;;23.63;12.13;;;;;;;-0.32;100.00;94113.13;10480865;28;20032;-75
2022/02/03 00:56:30;;;;;;;23.10;13.43;;;;;;;-0.42;100.00;94112.84;10463142;28;20525;-75
2022/02/03 01:01:35;;;;;;;21.13;15.82;;;;;;;-0.40;100.00;94124.00;10462842;28;20090;-76
2022/02/03 01:06:42;;;;;;;19.38;14.40;;;;;;;-0.23;100.00;94122.38;10454042;28;20051;-76
2022/02/03 01:11:46;;;;;;;20.98;12.93;;;;;;;-0.16;100.00;94127.56;10453349;28;20083;-74
2022/02/03 01:17:40;;;;;;;19.95;12.93;;;;;;;-0.19;100.00;94114.81;10451857;28;20017;-75
2022/02/03 01:43:33;;;;;;;18.92;11.82;;;;;;;-146.07;100.00;70291.31;10451999;28;20155;-76
2022/02/03 01:48:39;;;;;;;27.83;14.45;;;;;;;-146.07;100.00;70291.31;10450618;28;20376;-77
2022/02/03 01:53:40;;;;;;;15.45;10.35;;;;;;;-146.07;100.00;70291.31;10450389;28;20155;-75
2022/02/03 01:58:47;;;;;;;20.73;11.48;;;;;;;-146.07;100.00;70291.31;10449863;28;20148;-76
2022/02/03 02:03:56;;;;;;;19.77;10.32;;;;;;;-146.07;100.00;70291.31;10449440;28;20025;-75
2022/02/03 02:09:00;;;;;;;16.55;9.88;;;;;;;-146.07;100.00;70291.31;10449135;28;20051;-76
2022/02/03 02:46:23;;;;;;;21.27;11.75;;;;;;;-146.07;100.00;70291.31;10449419;28;20522;-75
2022/02/03 02:51:32;;;;;;;18.85;11.75;;;;;;;-146.07;100.00;70291.31;10448154;28;20116;-76
2022/02/03 03:39:40;;;;;;;21.42;10.95;;;;;;;-146.07;100.00;70291.31;10423853;28;20052;-75
2022/02/03 03:44:45;;;;;;;21.20;12.27;;;;;;;-146.07;100.00;70291.31;10444649;28;20059;-76
2022/02/03 03:49:49;;;;;;;24.85;13.07;;;;;;;-146.07;100.00;70291.31;10448258;28;20056;-76
2022/02/03 03:55:24;;;;;;;22.52;13.55;;;;;;;-146.07;100.00;70291.31;10451370;28;20054;-77
2022/02/03 04:38:12;;;;;;;16.40;13.00;;;;;;;-146.07;100.00;70291.31;10488059;28;20024;-76
2022/02/03 05:05:16;;;;;;;20.58;11.95;;;;;;;-146.07;100.00;70291.31;10453024;28;20056;-72
2022/02/03 06:09:47;;;;;;;24.05;10.88;;;;;;;-146.07;100.00;70291.31;10492059;28;20616;-73
2022/02/03 06:16:06;;;;;;;16.92;10.45;;;;;;;-146.07;100.00;70291.31;10490129;28;20036;-74
2022/02/03 06:30:56;;;;;;;16.55;10.57;;;;;;;-146.07;100.00;70291.31;10490748;28;20488;-74
2022/02/03 06:35:56;;;;;;;17.15;9.32;;;;;;;-146.07;100.00;70291.31;10488896;28;20020;-74
2022/02/03 06:40:57;;;;;;;16.42;9.05;;;;;;;-146.07;100.00;70291.31;10489354;28;20498;-77
2022/02/03 06:46:02;;;;;;;13.35;8.13;;;;;;;-146.07;100.00;70291.31;10488997;28;20042;-74
2022/02/03 06:51:19;;;;;;;17.35;9.35;;;;;;;-146.07;100.00;70291.31;10490519;28;20116;-73
2022/02/03 06:56:37;;;;;;;15.18;10.80;;;;;;;-146.07;100.00;70291.31;10487732;28;20025;-74
2022/02/03 07:01:42;;;;;;;;;;;;;;;-146.07;100.00;70291.31;10489432;28;20071;-75
2022/02/03 07:06:42;;;;;;;18.05;10.00;;;;;;;-146.07;100.00;70291.31;10486734;28;20441;-76
2022/02/03 07:11:44;;;;;;;18.50;10.38;;;;;;;-146.07;100.00;70291.31;10487263;28;20078;-75
2022/02/03 07:16:47;;;;;;;14.48;9.55;;;;;;;-146.07;100.00;70291.31;10487542;28;20028;-75
2022/02/03 07:21:48;;;;;;;19.25;10.30;;;;;;;-146.07;100.00;70291.31;10487085;28;20522;-74
2022/02/03 07:26:49;;;;;;;17.13;9.30;;;;;;;-146.07;100.00;70291.31;10488615;28;20115;-74
2022/02/03 07:31:49;;;;;;;25.00;11.25;;;;;;;-146.07;100.00;70291.31;10487114;28;20072;-74
2022/02/03 07:36:50;;;;;;;13.82;9.60;;;;;;;-146.07;100.00;70291.31;10487251;28;20028;-76
2022/02/03 07:41:50;;;;;;;17.55;9.73;;;;;;;-146.07;100.00;70291.31;10486596;28;20115;-76
2022/02/03 07:46:51;;;;;;;27.33;10.32;;;;;;;-146.07;100.00;70291.31;10486758;28;20059;-73
2022/02/03 07:51:51;;;;;;;17.73;9.77;;;;;;;-146.07;100.00;70291.31;10487612;28;20032;-73
2022/02/03 07:56:52;;;;;;;16.60;9.88;;;;;;;-146.07;100.00;70291.31;10488171;28;20035;-73
2022/02/03 08:01:52;;;;;;;25.08;9.88;;;;;;;-146.07;100.00;70291.31;10487777;28;20027;-72
2022/02/03 08:06:53;;;;;;;13.43;8.65;;;;;;;-146.07;100.00;70291.31;10487805;28;20052;-74
2022/02/03 08:11:55;;;;;;;24.98;9.88;;;;;;;-146.07;100.00;70291.31;10487116;28;20028;-77
2022/02/03 08:17:02;;;;;;;16.50;8.68;;;;;;;-146.07;100.00;70291.31;10488447;28;20028;-74
2022/02/03 08:22:09;;;;;;;19.27;11.63;;;;;;;-146.07;100.00;70291.31;10494739;28;20036;-74
2022/02/03 08:27:36;;;;;;;18.40;10.23;;;;;;;-146.07;100.00;70291.31;10494456;28;20017;-75
2022/02/03 08:32:33;;;;;;;18.52;10.27;;;;;;;-146.07;100.00;70291.31;10494850;28;20024;-74
2022/02/03 08:37:45;;;;;;;16.77;10.68;;;;;;;-146.07;100.00;70291.31;10493452;28;20546;-74
2022/02/03 08:42:46;;;;;;;16.38;10.80;;;;;;;-146.07;100.00;70291.31;10493509;28;20047;-75
2022/02/03 08:47:47;;;;;;;24.75;13.43;;;;;;;-146.07;100.00;70291.31;10492383;28;20039;-75
2022/02/03 08:53:01;;;;;;;18.25;12.30;;;;;;;-146.07;100.00;70291.31;10493095;28;20028;-75
2022/02/03 09:56:39;;;;;;;15.02;8.93;;;;;;;-146.07;100.00;70291.31;10492234;28;20021;-77
2022/02/03 10:01:52;;;;;;;20.27;10.70;;;;;;;-146.07;100.00;70291.31;10491947;28;20468;-80
2022/02/03 10:06:59;;;;;;;19.15;8.95;;;;;;;-146.07;100.00;70291.31;10490053;28;20048;-74
2022/02/03 10:12:00;;;;;;;11.40;8.02;;;;;;;-146.07;100.00;70291.31;10489907;28;20499;-74
2022/02/03 10:17:02;;;;;;;16.42;9.75;;;;;;;-146.07;100.00;70291.31;10489782;28;20491;-74
2022/02/03 10:22:11;;;;;;;13.23;7.95;;;;;;;-146.07;100.00;70291.31;10489480;28;20085;-74
2022/02/03 10:27:36;;;;;;;12.90;7.00;;;;;;;-146.07;100.00;70291.31;10489791;28;20562;-75
2022/02/03 10:32:40;;;;;;;16.80;7.88;;;;;;;-146.07;100.00;70291.31;10490514;28;20032;-76
2022/02/03 10:37:45;;;;;;;10.63;6.25;;;;;;;-146.07;100.00;70291.31;10490507;28;20032;-76
2022/02/03 11:10:14;;;;;;;16.63;6.05;;;;;;;-146.07;100.00;70291.31;10490211;28;20025;-73
2022/02/03 11:15:15;;;;;;;14.70;5.05;;;;;;;-146.07;100.00;70291.31;10488340;28;20483;-74
2022/02/03 11:20:18;;;;;;;6.60;4.32;;;;;;;-146.07;100.00;70291.31;10488037;28;20085;-77
2022/02/03 11:25:39;;;;;;;5.53;3.78;;;;;;;-146.07;100.00;70291.31;10487306;28;20036;-78
2022/02/03 11:41:55;;;;;;;14.45;5.57;;;;;;;-146.07;100.00;70291.31;10447403;28;20025;-75
2022/02/03 12:29:49;;;;;;;9.15;6.03;;;;;;;-146.07;100.00;70291.31;10450286;28;20430;-74
2022/02/03 12:40:51;;;;;;;11.70;6.43;;;;;;;-146.07;100.00;70291.31;10452390;28;20033;-73
2022/02/03 12:45:37;;;;;;;12.15;6.15;;;;;;;-146.07;100.00;70291.31;10445347;28;20052;-78
2022/02/03 12:50:40;;;;;;;8.65;5.38;;;;;;;-146.07;100.00;70291.31;10444778;28;20090;-74
2022/02/03 12:55:42;;;;;;;8.10;5.65;;;;;;;-146.07;100.00;70291.31;10434139;23;20053;-72
2022/02/03 13:00:56;;;;;;;10.15;6.53;;;;;;;-146.07;100.00;70291.31;10386707;28;20080;-78
2022/02/03 13:06:04;;;;;;;10.48;7.10;;;;;;;-146.07;100.00;70291.31;10410060;28;20423;-79
2022/02/03 13:11:11;;;;;;;15.43;8.00;;;;;;;-146.07;100.00;70291.31;10398026;28;20041;-73
2022/02/03 13:16:12;;;;;;;13.65;6.57;;;;;;;-146.07;100.00;70291.31;10383832;28;20311;-72
2022/02/03 13:21:33;;;;;;;9.13;5.30;;;;;;;-146.07;100.00;70291.31;10392801;28;20094;-74
2022/02/03 13:26:36;;;;;;;11.82;7.13;;;;;;;-146.07;100.00;70291.31;10362004;28;20080;-73
2022/02/03 13:31:49;;;;;;;17.63;8.35;;;;;;;-146.07;100.00;70291.31;10368594;28;20030;-73
2022/02/03 13:36:56;;;;;;;15.98;8.80;;;;;;;-146.07;100.00;70291.31;10368339;28;20030;-73
2022/02/03 13:42:05;;;;;;;14.38;8.95;;;;;;;-146.07;100.00;70291.31;10368351;28;20033;-74
2022/02/03 13:47:26;;;;;;;19.17;9.45;;;;;;;-146.07;100.00;70291.31;10376263;28;20032;-73
2022/02/03 13:52:41;;;;;;;18.40;8.85;;;;;;;-146.07;100.00;70291.31;10410143;28;20077;-74
2022/02/03 14:19:28;;;;;;;33.28;16.30;;;;;;;-146.07;100.00;70291.31;10408224;28;20121;-74
2022/02/03 14:29:52;;;;;;;24.75;16.15;;;;;;;-146.07;100.00;70291.31;10407462;28;20041;-72
2022/02/03 14:34:52;;;;;;;26.67;15.88;;;;;;;-146.07;100.00;70291.31;10406747;28;20029;-74
2022/02/03 14:40:19;;;;;;;23.17;13.15;;;;;;;-146.07;100.00;70291.31;10405734;28;20073;-74
2022/02/03 14:45:19;;;;;;;26.45;14.07;;;;;;;-146.07;100.00;70291.31;10392936;28;20074;-76
2022/02/03 14:50:21;;;;;;;19.67;11.15;;;;;;;-146.07;100.00;70291.31;10405751;28;20041;-79
2022/02/03 15:00:47;;;;;;;18.10;9.48;;;;;;;-146.07;100.00;70291.31;10407182;28;20041;-75
2022/02/03 15:05:48;;;;;;;11.15;9.35;;;;;;;-146.07;100.00;70291.31;10405143;28;20420;-74
2022/02/03 15:11:04;;;;;;;17.83;10.30;;;;;;;-146.07;100.00;70291.31;10387525;28;20033;-73
2022/02/03 15:16:04;;;;;;;17.83;9.43;;;;;;;-146.07;100.00;70291.31;10363598;28;20124;-77
2022/02/03 15:21:06;;;;;;;17.20;10.68;;;;;;;-146.07;100.00;70291.31;10364725;28;20083;-77
2022/02/03 15:26:06;;;;;;;15.02;9.48;;;;;;;-146.07;100.00;70291.31;10363992;28;20542;-73
2022/02/03 15:31:07;;;;;;;12.35;9.20;;;;;;;-146.07;100.00;70291.31;10364009;28;20026;-73
2022/02/03 15:36:11;;;;;;;12.32;10.52;;;;;;;-146.07;100.00;70291.31;10346855;28;20197;-72
2022/02/03 15:41:20;;;;;;;12.38;8.55;;;;;;;-146.07;100.00;70291.31;10363468;28;20069;-73
2022/02/03 15:46:23;;;;;;;14.50;9.98;;;;;;;-146.07;100.00;70291.31;10401589;28;20038;-74
2022/02/03 16:01:46;;;;;;;14.05;9.38;;;;;;;-146.07;100.00;70291.31;10404728;28;20057;-73
2022/02/03 16:17:25;;;;;;;11.90;6.28;;;;;;;-146.07;100.00;70291.31;10403876;28;20060;-73
2022/02/03 16:53:33;;;;;;;13.20;8.32;;;;;;;-146.07;100.00;70291.31;10411248;28;20065;-74
2022/02/03 16:58:34;;;;;;;14.32;8.70;;;;;;;-146.07;100.00;70291.31;10392914;28;20025;-72
2022/02/03 17:03:35;;;;;;;16.70;10.63;;;;;;;-146.07;100.00;70291.31;10411931;28;20032;-74
2022/02/03 17:08:36;;;;;;;18.45;11.50;;;;;;;-146.07;100.00;70291.31;10409890;28;20413;-74
2022/02/03 17:13:37;;;;;;;16.42;10.18;;;;;;;-146.07;100.00;70291.31;10409390;28;20033;-74
2022/02/03 17:18:37;;;;;;;13.05;7.93;;;;;;;-146.07;100.00;70291.31;10393040;28;20468;-74
2022/02/03 17:23:38;;;;;;;15.07;8.98;;;;;;;-146.07;100.00;70291.31;10409146;28;20025;-74
2022/02/03 17:28:49;;;;;;;16.65;9.48;;;;;;;-146.07;100.00;70291.31;10407894;28;20030;-76
2022/02/03 18:06:27;;;;;;;17.35;10.43;;;;;;;-146.07;100.00;70291.31;10423189;28;20459;-73
2022/02/03 18:53:32;;;;;;;16.33;10.80;;;;;;;-146.07;100.00;70291.31;10413643;28;20089;-75
2022/02/03 20:11:33;;;;;;;10.75;8.48;;;;;;;-146.07;100.00;70291.31;10403965;28;20036;-72
2022/02/03 20:16:34;;;;;;;12.98;9.85;;;;;;;-146.07;100.00;70291.31;10385269;28;20445;-73
2022/02/03 20:21:36;;;;;;;14.95;9.95;;;;;;;-146.07;100.00;70291.31;10369414;28;20033;-73
2022/02/03 20:26:38;;;;;;;13.10;11.68;;;;;;;-146.07;100.00;70291.31;10370431;28;20405;-73
2022/02/03 20:31:39;;;;;;;12.20;9.85;;;;;;;-146.07;100.00;70291.31;10394082;28;20037;-73
2022/02/03 20:36:40;;;;;;;16.88;10.15;;;;;;;-146.07;100.00;70291.31;10409359;28;20045;-76
2022/02/03 20:41:40;;;;;;;15.73;10.30;;;;;;;-146.07;100.00;70291.31;10409869;28;20040;-75
2022/02/03 20:46:41;;;;;;;13.50;12.13;;;;;;;-146.07;100.00;70291.31;10396942;28;20026;-74
2022/02/03 20:51:43;;;;;;;10.80;9.85;;;;;;;-146.07;100.00;70291.31;10368987;28;20066;-74
2022/02/03 20:56:44;;;;;;;14.63;10.88;;;;;;;-146.07;100.00;70291.31;10369542;28;20108;-81
2022/02/03 21:01:50;;;;;;;14.90;13.80;;;;;;;-146.07;100.00;70291.31;10368433;28;20040;-74
2022/02/03 21:06:51;;;;;;;16.70;10.50;;;;;;;-146.07;100.00;70291.31;10370076;28;20128;-78
2022/02/03 21:11:51;;;;;;;18.98;17.42;;;;;;;-146.07;100.00;70291.31;10369538;28;20132;-77
2022/02/03 21:16:52;;;;;;;9.93;8.57;;;;;;;-146.07;100.00;70291.31;10396408;28;20035;-73
2022/02/03 21:21:53;;;;;;;10.38;9.07;;;;;;;-146.07;100.00;70291.31;10408978;28;20030;-74
2022/02/03 21:26:58;;;;;;;13.02;11.73;;;;;;;-146.07;100.00;70291.31;10395171;28;20389;-76
2022/02/03 21:31:58;;;;;;;13.43;10.68;;;;;;;-146.07;100.00;70291.31;10367738;28;20038;-74
2022/02/03 21:36:59;;;;;;;12.32;10.35;;;;;;;-146.07;100.00;70291.31;10367817;28;20065;-75
2022/02/03 21:42:00;;;;;;;16.33;10.68;;;;;;;-146.07;100.00;70291.31;10390352;28;20083;-74
2022/02/03 21:47:00;;;;;;;14.27;11.05;;;;;;;-146.07;100.00;70291.31;10409046;28;20481;-73
2022/02/03 21:52:01;;;;;;;10.82;9.73;;;;;;;-146.07;100.00;70291.31;10366368;28;20050;-72
2022/02/03 21:57:03;;;;;;;9.63;8.50;;;;;;;-146.07;100.00;70291.31;10374986;28;20025;-74
2022/02/03 22:02:06;;;;;;;11.27;8.85;;;;;;;-146.07;100.00;70291.31;10382275;28;20025;-73
2022/02/03 22:07:06;;;;;;;11.55;8.13;;;;;;;-146.07;100.00;70291.31;10366532;28;20033;-78
2022/02/03 22:12:08;;;;;;;12.32;8.55;;;;;;;-146.07;100.00;70291.31;10383389;28;20113;-73
2022/02/03 22:17:08;;;;;;;8.88;7.50;;;;;;;-146.07;100.00;70291.31;10381899;28;20033;-74
2022/02/03 22:48:30;;;;;;;10.68;9.48;;;;;;;-146.07;100.00;70291.31;10241983;29;20074;-74
2022/02/03 22:53:35;;;;;;;10.48;8.93;;;;;;;-146.07;100.00;70291.31;10338169;28;20153;-75
2022/02/03 23:03:45;;;;;;;7.63;6.35;;;;;;;-146.07;100.00;70291.31;10408302;28;20035;-73
2022/02/03 23:24:20;;;;;;;6.85;6.05;;;;;;;-146.07;100.00;70291.31;10406904;28;20025;-74
2022/02/03 23:29:21;;;;;;;11.98;6.72;;;;;;;-146.07;100.00;70291.31;10405654;28;20036;-73
2022/02/03 23:34:22;;;;;;;10.20;6.15;;;;;;;-146.07;100.00;70291.31;10405032;28;20195;-74
2022/02/03 23:39:39;;;;;;;8.63;6.80;;;;;;;-146.07;100.00;70291.31;10406761;28;20025;-74
2022/02/03 23:44:52;;;;;;;13.55;7.20;;;;;;;-146.07;100.00;70291.31;10405638;28;20037;-75
